Time;durP1;ratioP1;P1;durP2;ratioP2;P2;SDS_P1;SDS_P2;PMS_P1;PMS_P2;Temp;Humidity;BMP_temperature;BMP_pressure;BME280_temperature;BME280_humidity;BME280_pressure;Samples;Min_cycle;Max_cycle;Signal;HPM_P1;HPM_P2
2022/11/04 00:01:59;;;;;;;0.10;0.10;;;;;;;13.81;61.59;96827.41;8412089;28;20514;-73
2022/11/04 00:06:03;;;;;;;0.10;0.10;;;;;;;13.74;61.59;96828.81;8412587;28;20297;-73
2022/11/04 00:10:07;;;;;;;0.10;0.10;;;;;;;13.60;61.91;96825.47;8412472;28;20230;-73
2022/11/04 00:14:11;;;;;;;0.00;0.00;;;;;;;13.73;62.09;96827.13;8412618;28;20523;-73
2022/11/04 00:18:14;;;;;;;0.10;0.10;;;;;;;13.71;62.16;96835.06;8412341;28;20227;-73
2022/11/04 00:33:24;;;;;;;0.00;0.00;;;;;;;13.75;62.46;96859.09;8411834;28;20230;-73
2022/11/04 00:35:23;;;;;;;0.00;0.00;;;;;;;13.79;62.80;96866.53;8412472;28;20231;-74
2022/11/04 00:39:26;;;;;;;0.10;0.10;;;;;;;13.68;63.78;96869.13;8413190;28;20235;-74
2022/11/04 00:43:30;;;;;;;0.10;0.10;;;;;;;13.44;66.22;96882.16;8413618;28;20409;-73
2022/11/04 00:47:33;;;;;;;0.10;0.10;;;;;;;13.73;66.15;96864.41;8413168;28;20234;-74
2022/11/04 00:51:35;;;;;;;0.00;0.00;;;;;;;13.74;66.53;96863.44;8412709;28;20230;-74
2022/11/04 00:55:38;;;;;;;0.10;0.10;;;;;;;13.81;66.88;96874.25;8412573;28;20380;-73
2022/11/04 00:59:44;;;;;;;0.03;0.03;;;;;;;13.79;67.33;96873.53;8412130;28;20538;-73
2022/11/04 01:03:48;;;;;;;0.00;0.00;;;;;;;13.82;67.14;96873.28;8412155;28;20238;-74
2022/11/04 01:07:51;;;;;;;0.10;0.10;;;;;;;13.82;66.74;96863.72;8414654;28;20230;-74
2022/11/04 01:11:53;;;;;;;0.10;0.10;;;;;;;13.77;67.41;96870.22;8417839;28;20235;-73
2022/11/04 01:15:59;;;;;;;0.10;0.10;;;;;;;13.76;67.46;96863.34;8418160;28;20469;-74
2022/11/04 01:20:02;;;;;;;0.10;0.10;;;;;;;13.57;68.57;96858.69;8417971;28;20534;-73
2022/11/04 01:24:06;;;;;;;0.10;0.10;;;;;;;13.78;67.30;96866.66;8417711;28;20226;-73
2022/11/04 01:28:09;;;;;;;0.10;0.10;;;;;;;13.77;66.75;96860.63;8417778;28;20227;-73
2022/11/04 01:32:14;;;;;;;0.00;0.00;;;;;;;13.74;67.39;96858.25;8417284;28;20597;-73
2022/11/04 01:36:17;;;;;;;0.10;0.10;;;;;;;13.90;66.60;96865.75;8417512;28;20287;-73
2022/11/04 01:40:20;;;;;;;0.00;0.00;;;;;;;13.88;66.82;96863.25;8417290;28;20242;-73
2022/11/04 01:44:59;;;;;;;0.10;0.10;;;;;;;13.73;66.36;96872.22;8417478;28;20524;-73
2022/11/04 01:49:22;;;;;;;0.00;0.00;;;;;;;13.77;66.55;96876.25;8417129;28;20239;-73
2022/11/04 01:53:27;;;;;;;0.00;0.00;;;;;;;13.94;65.83;96887.16;8417109;28;20230;-73
2022/11/04 01:57:33;;;;;;;0.00;0.00;;;;;;;13.83;66.30;96891.38;8417169;28;20525;-74
2022/11/04 02:01:36;;;;;;;0.00;0.00;;;;;;;13.71;66.41;96881.06;8417172;28;20231;-76
2022/11/04 02:05:42;;;;;;;0.00;0.00;;;;;;;13.68;65.73;96882.13;8416617;28;20234;-73
2022/11/04 02:09:45;;;;;;;0.03;0.03;;;;;;;13.69;65.42;96904.59;8416371;28;20432;-74
2022/11/04 02:13:48;;;;;;;0.10;0.10;;;;;;;13.60;64.33;96926.91;8416454;28;20230;-74
2022/11/04 02:18:10;;;;;;;0.10;0.10;;;;;;;13.52;64.85;96939.66;8415976;28;20488;-74
2022/11/04 02:22:33;;;;;;;0.00;0.00;;;;;;;13.39;65.26;96951.88;8416161;28;20226;-74
2022/11/04 02:27:00;;;;;;;0.00;0.00;;;;;;;13.48;64.65;96935.63;8415865;28;20246;-74
2022/11/04 02:31:10;;;;;;;0.10;0.10;;;;;;;13.53;64.63;96933.50;8415836;28;20244;-74
2022/11/04 02:35:20;;;;;;;0.00;0.00;;;;;;;13.56;64.65;96942.88;8415817;28;20222;-74
2022/11/04 02:39:33;;;;;;;0.10;0.10;;;;;;;13.63;64.70;96934.50;8415255;28;20502;-74
2022/11/04 02:43:44;;;;;;;0.07;0.07;;;;;;;13.60;64.53;96937.31;8415349;28;20226;-75
2022/11/04 02:47:51;;;;;;;0.10;0.10;;;;;;;13.54;65.05;96935.16;8415055;28;20502;-74
2022/11/04 02:51:57;;;;;;;0.10;0.10;;;;;;;13.62;64.52;96940.63;8414428;28;20238;-74
2022/11/04 02:56:02;;;;;;;0.10;0.10;;;;;;;13.60;64.97;96924.31;8414726;28;20352;-74
2022/11/04 03:00:06;;;;;;;0.10;0.10;;;;;;;13.67;64.41;96922.94;8414817;28;20288;-74
2022/11/04 03:04:13;;;;;;;0.10;0.10;;;;;;;13.66;64.18;96918.66;8414250;28;20238;-74
2022/11/04 03:08:20;;;;;;;0.10;0.10;;;;;;;13.63;63.74;96925.84;8414459;28;20219;-74
2022/11/04 03:12:25;;;;;;;0.10;0.10;;;;;;;13.74;63.80;96909.47;8414271;28;20420;-74
2022/11/04 03:16:33;;;;;;;0.10;0.10;;;;;;;13.65;63.79;96916.16;8413929;28;20247;-74
2022/11/04 03:20:38;;;;;;;0.10;0.10;;;;;;;13.71;63.37;96923.53;8414197;28;20296;-74
2022/11/04 03:24:42;;;;;;;0.10;0.10;;;;;;;13.65;63.39;96930.03;8413669;28;20298;-74
2022/11/04 03:28:47;;;;;;;0.10;0.10;;;;;;;13.67;63.36;96940.31;8413472;28;20277;-74
2022/11/04 03:32:57;;;;;;;0.10;0.10;;;;;;;13.65;63.11;96953.44;8413525;28;20235;-73
2022/11/04 03:37:01;;;;;;;0.10;0.10;;;;;;;13.62;63.50;96958.03;8406224;28;20245;-73
2022/11/04 03:41:07;;;;;;;0.00;0.00;;;;;;;13.65;63.18;96953.44;8413420;28;20254;-74
2022/11/04 03:45:11;;;;;;;0.00;0.00;;;;;;;13.64;62.63;96940.53;8413689;28;20231;-74
2022/11/04 03:49:14;;;;;;;0.10;0.10;;;;;;;13.63;62.56;96937.09;8413070;28;20238;-74
2022/11/04 03:53:21;;;;;;;0.00;0.00;;;;;;;13.77;62.57;96938.69;8413353;28;20230;-74
2022/11/04 03:57:39;;;;;;;0.10;0.10;;;;;;;13.75;62.08;96945.78;8413224;28;20416;-74
2022/11/04 04:01:49;;;;;;;0.00;0.00;;;;;;;13.83;61.80;96948.63;8412823;28;20315;-74
2022/11/04 04:05:54;;;;;;;0.00;0.00;;;;;;;13.69;62.38;96954.88;8412711;28;20230;-74
2022/11/04 04:10:37;;;;;;;0.00;0.00;;;;;;;13.77;62.38;96962.09;8412391;28;20266;-74
2022/11/04 04:14:40;;;;;;;0.00;0.00;;;;;;;13.73;61.43;96947.66;8412628;28;20234;-74
2022/11/04 04:18:46;;;;;;;0.10;0.10;;;;;;;13.71;61.81;96959.09;8412835;28;20231;-74
2022/11/04 04:22:53;;;;;;;0.10;0.10;;;;;;;13.73;61.28;96957.22;8412463;28;20553;-74
2022/11/04 04:31:48;;;;;;;0.00;0.00;;;;;;;13.63;61.18;96959.66;8412421;28;20547;-74
2022/11/04 04:35:44;;;;;;;0.00;0.00;;;;;;;13.64;61.37;96966.53;8411944;28;20235;-74
2022/11/04 04:48:35;;;;;;;0.10;0.10;;;;;;;13.66;60.95;96954.25;8418891;28;20234;-74
2022/11/04 04:52:39;;;;;;;0.10;0.10;;;;;;;13.65;60.82;96960.38;8418405;28;20454;-74
2022/11/04 04:56:42;;;;;;;0.00;0.00;;;;;;;13.68;60.93;96945.38;8418592;28;20242;-74
2022/11/04 05:00:46;;;;;;;0.10;0.10;;;;;;;13.64;60.94;96937.94;8418157;28;20264;-74
2022/11/04 05:04:48;;;;;;;0.07;0.07;;;;;;;13.67;60.46;96937.72;8418223;28;20230;-74
2022/11/04 05:08:51;;;;;;;0.10;0.10;;;;;;;13.53;61.18;96922.28;8417934;28;20230;-74
2022/11/04 05:17:12;;;;;;;0.00;0.00;;;;;;;13.57;61.12;96931.50;8405047;28;20234;-74
2022/11/04 05:21:16;;;;;;;0.10;0.10;;;;;;;13.33;60.91;96929.75;8417643;28;20526;-74
2022/11/04 05:25:19;;;;;;;0.10;0.10;;;;;;;13.37;61.12;96918.19;8417777;28;20242;-74
2022/11/04 05:29:22;;;;;;;0.00;0.00;;;;;;;13.56;60.47;96893.44;8417602;28;20230;-74
2022/11/04 05:33:26;;;;;;;0.00;0.00;;;;;;;13.50;60.87;96892.13;8417270;28;20242;-74
2022/11/04 05:37:29;;;;;;;0.03;0.03;;;;;;;13.52;60.78;96892.00;8417227;28;20427;-74
2022/11/04 05:41:32;;;;;;;0.10;0.10;;;;;;;13.52;61.00;96924.06;8416812;28;20243;-73
2022/11/04 05:45:35;;;;;;;0.00;0.00;;;;;;;13.56;60.36;96930.69;8416716;28;20234;-76
2022/11/04 05:49:39;;;;;;;0.00;0.00;;;;;;;13.47;61.08;96937.38;8416805;28;20230;-74
2022/11/04 05:53:42;;;;;;;0.10;0.10;;;;;;;13.58;61.12;96948.78;8415746;28;20298;-74
2022/11/04 05:57:45;;;;;;;0.10;0.10;;;;;;;13.38;60.78;96971.00;8416641;28;20246;-74
2022/11/04 06:01:48;;;;;;;0.10;0.10;;;;;;;13.42;60.83;96929.09;8416644;28;20239;-74
2022/11/04 06:05:53;;;;;;;0.00;0.00;;;;;;;13.26;61.76;96905.91;8415910;28;20238;-74
2022/11/04 06:09:56;;;;;;;0.10;0.10;;;;;;;13.35;61.53;96948.66;8415594;28;20238;-74
2022/11/04 06:13:59;;;;;;;0.10;0.10;;;;;;;13.16;63.38;96956.09;8415892;28;20231;-74
2022/11/04 06:18:02;;;;;;;0.00;0.00;;;;;;;13.29;63.30;96975.91;8415797;28;20268;-74
2022/11/04 06:22:06;;;;;;;0.10;0.10;;;;;;;13.26;63.24;97001.28;8415586;28;20300;-74
2022/11/04 06:26:08;;;;;;;0.00;0.00;;;;;;;13.43;63.40;97007.94;8415830;28;20246;-74
2022/11/04 06:30:12;;;;;;;0.10;0.10;;;;;;;13.40;63.80;97008.13;8415723;28;20537;-74
2022/11/04 06:34:15;;;;;;;0.10;0.10;;;;;;;13.41;63.51;97030.63;8416090;28;20506;-74
2022/11/04 06:38:19;;;;;;;0.00;0.00;;;;;;;13.52;63.09;97038.50;8415327;28;20264;-74
2022/11/04 06:42:22;;;;;;;0.00;0.00;;;;;;;13.41;63.39;97051.44;8415222;28;20280;-74
2022/11/04 06:46:27;;;;;;;0.00;0.00;;;;;;;13.51;62.84;97062.81;8415049;28;20231;-74
2022/11/04 06:50:30;;;;;;;0.10;0.10;;;;;;;13.55;62.23;97069.47;8414726;28;20230;-74
2022/11/04 06:54:34;;;;;;;0.00;0.00;;;;;;;13.62;62.40;97056.88;8414560;28;20235;-74
2022/11/04 06:58:37;;;;;;;0.00;0.00;;;;;;;13.54;62.68;97052.22;8414305;28;20258;-74
2022/11/04 07:02:39;;;;;;;0.10;0.10;;;;;;;13.43;63.15;97047.75;8414133;28;20431;-74
2022/11/04 07:06:42;;;;;;;0.10;0.10;;;;;;;13.52;63.07;97045.44;8414326;28;20411;-74
2022/11/04 07:10:48;;;;;;;0.07;0.07;;;;;;;13.47;62.93;97051.81;8413761;28;20253;-74
2022/11/04 07:14:51;;;;;;;0.00;0.00;;;;;;;13.54;62.87;97069.59;8413691;28;20226;-74
2022/11/04 07:18:54;;;;;;;0.10;0.10;;;;;;;13.55;62.63;97056.47;8413827;28;20234;-74
2022/11/04 07:22:57;;;;;;;0.00;0.00;;;;;;;13.60;62.91;97045.75;8413145;28;20535;-74
2022/11/04 07:27:01;;;;;;;0.10;0.10;;;;;;;13.64;62.90;97026.38;8413081;28;20522;-74
2022/11/04 07:31:10;;;;;;;0.00;0.00;;;;;;;13.70;62.96;96981.69;8413490;28;20227;-75
2022/11/04 07:35:13;;;;;;;0.00;0.00;;;;;;;13.69;63.29;96983.47;8413216;28;20522;-74
2022/11/04 07:39:16;;;;;;;0.00;0.00;;;;;;;13.67;62.47;96994.94;8412853;28;20227;-75
2022/11/04 07:43:21;;;;;;;0.00;0.00;;;;;;;13.82;62.39;96999.03;8412557;28;20239;-75
2022/11/04 07:47:23;;;;;;;0.10;0.10;;;;;;;13.82;62.56;96992.97;8412396;28;20226;-74
2022/11/04 07:51:27;;;;;;;0.00;0.00;;;;;;;13.88;62.47;96992.56;8412432;28;20258;-74
2022/11/04 07:55:29;;;;;;;0.00;0.00;;;;;;;13.85;61.88;96979.75;8412260;28;20249;-74
2022/11/04 07:59:33;;;;;;;0.10;0.10;;;;;;;13.74;62.80;96985.75;8412335;28;20539;-75
2022/11/04 08:03:37;;;;;;;0.00;0.00;;;;;;;13.79;62.43;97001.84;8412242;28;20234;-75
2022/11/04 08:07:40;;;;;;;0.00;0.00;;;;;;;13.85;61.96;96988.38;8412124;28;20233;-75
2022/11/04 08:11:42;;;;;;;0.10;0.10;;;;;;;13.73;62.53;96991.91;8411711;28;20238;-75
2022/11/04 08:15:47;;;;;;;0.10;0.10;;;;;;;13.84;62.43;97010.16;8411821;28;20246;-75
2022/11/04 08:19:50;;;;;;;0.00;0.00;;;;;;;13.85;61.69;97031.81;8411764;28;20444;-75
2022/11/04 08:23:52;;;;;;;0.00;0.00;;;;;;;13.83;61.86;97057.13;8410791;28;20505;-75
2022/11/04 08:27:55;;;;;;;0.00;0.00;;;;;;;13.78;61.72;97065.22;8411420;28;20229;-74
2022/11/04 08:36:37;;;;;;;0.10;0.10;;;;;;;13.83;60.68;97081.34;8410668;28;20303;-75
2022/11/04 08:40:40;;;;;;;0.00;0.00;;;;;;;13.70;60.34;97088.38;8410059;28;20375;-75
2022/11/04 08:44:43;;;;;;;0.10;0.10;;;;;;;13.77;60.34;97097.41;8411364;28;20230;-75
2022/11/04 08:48:48;;;;;;;0.00;0.00;;;;;;;13.73;60.85;97095.97;8411466;28;20368;-74
2022/11/04 08:52:51;;;;;;;0.10;0.10;;;;;;;13.79;59.79;97090.31;8410239;28;20595;-74
2022/11/04 08:57:02;;;;;;;0.00;0.00;;;;;;;13.67;59.97;97093.81;8402716;28;20498;-73
2022/11/04 09:01:11;;;;;;;0.00;0.00;;;;;;;13.71;60.04;97094.41;8410778;28;20252;-75
2022/11/04 09:05:15;;;;;;;0.10;0.10;;;;;;;13.93;67.44;97089.31;8411206;28;20503;-74
2022/11/04 09:09:18;;;;;;;0.00;0.00;;;;;;;13.85;59.81;97081.25;8410462;28;20230;-74
2022/11/04 09:13:21;;;;;;;0.00;0.00;;;;;;;13.85;59.56;97091.66;8411211;28;20514;-74
2022/11/04 09:17:24;;;;;;;0.10;0.10;;;;;;;13.87;59.08;97095.81;8410502;28;20223;-75
2022/11/04 09:21:28;;;;;;;0.00;0.00;;;;;;;13.84;59.32;97100.41;8410701;28;20234;-74
2022/11/04 09:25:32;;;;;;;0.00;0.00;;;;;;;13.84;58.97;97103.84;8410576;28;20432;-74
2022/11/04 09:29:35;;;;;;;0.00;0.00;;;;;;;13.88;58.83;97091.44;8414434;28;20235;-74
2022/11/04 09:33:38;;;;;;;0.10;0.10;;;;;;;13.89;58.26;97075.69;8416451;28;20234;-75
2022/11/04 09:37:42;;;;;;;0.00;0.00;;;;;;;13.94;58.49;97056.34;8416530;28;20249;-75
2022/11/04 09:41:54;;;;;;;0.10;0.10;;;;;;;13.96;58.13;97037.06;8416071;28;20238;-75
2022/11/04 09:45:57;;;;;;;0.10;0.10;;;;;;;13.89;58.56;97035.84;8415825;28;20235;-74
2022/11/04 09:50:01;;;;;;;0.00;0.00;;;;;;;14.00;59.19;97035.06;8415995;28;20235;-74
2022/11/04 09:54:12;;;;;;;0.10;0.10;;;;;;;13.97;58.67;97049.13;8415995;28;20239;-75
2022/11/04 09:58:14;;;;;;;0.10;0.10;;;;;;;13.93;58.83;97052.88;8416222;28;20227;-74
2022/11/04 10:02:29;;;;;;;0.00;0.00;;;;;;;14.01;58.20;97054.94;8415672;28;20230;-75
2022/11/04 10:06:38;;;;;;;0.00;0.00;;;;;;;14.04;57.88;97046.91;8416167;28;20247;-74
2022/11/04 10:10:47;;;;;;;0.03;0.03;;;;;;;13.86;57.45;97044.72;8415701;28;20239;-75
2022/11/04 10:15:01;;;;;;;0.10;0.10;;;;;;;14.05;57.78;97038.16;8415615;28;20311;-74
2022/11/04 10:19:25;;;;;;;0.00;0.00;;;;;;;14.05;57.70;97028.59;8414744;28;20502;-72
2022/11/04 10:23:32;;;;;;;0.10;0.10;;;;;;;14.27;61.66;97016.56;8414556;28;20245;-73
2022/11/04 10:27:38;;;;;;;0.10;0.10;;;;;;;15.58;75.47;97024.84;8415434;28;20429;-75
2022/11/04 10:31:43;;;;;;;0.10;0.10;;;;;;;16.35;67.76;97023.84;8415601;28;20245;-76
2022/11/04 10:35:48;;;;;;;0.00;0.00;;;;;;;15.63;56.36;97009.63;8414813;28;20231;-77
2022/11/04 10:39:53;;;;;;;0.00;0.00;;;;;;;15.20;56.01;97006.03;8414233;28;20238;-75
2022/11/04 10:43:59;;;;;;;0.00;0.00;;;;;;;15.02;57.00;97012.66;8414156;28;20238;-73
2022/11/04 10:48:07;;;;;;;0.10;0.10;;;;;;;15.02;55.79;97008.31;8414557;28;20428;-73
2022/11/04 10:52:11;;;;;;;0.00;0.00;;;;;;;14.96;55.01;97019.19;8414309;28;20235;-74
2022/11/04 10:56:27;;;;;;;0.00;0.00;;;;;;;15.04;55.38;97031.63;8414397;28;20517;-73
2022/11/04 11:00:36;;;;;;;0.00;0.00;;;;;;;15.09;54.56;97032.13;8414233;27;20234;-73
2022/11/04 11:04:40;;;;;;;0.00;0.00;;;;;;;15.26;55.31;97038.63;8414263;28;20237;-72
2022/11/04 11:08:44;;;;;;;0.00;0.00;;;;;;;15.42;55.05;97051.28;8413939;28;20238;-71
2022/11/04 11:12:52;;;;;;;0.10;0.10;;;;;;;15.29;54.26;97048.84;8413899;28;20257;-71
2022/11/04 11:16:57;;;;;;;0.00;0.00;;;;;;;15.42;54.73;97036.50;8413283;28;20226;-71
2022/11/04 11:21:09;;;;;;;0.00;0.00;;;;;;;15.17;54.46;97019.31;8413421;28;20541;-71
2022/11/04 11:25:24;;;;;;;0.00;0.00;;;;;;;15.21;53.56;97009.47;8413305;28;20246;-71
2022/11/04 11:29:29;;;;;;;0.00;0.00;;;;;;;15.20;53.70;97013.84;8412891;28;20529;-71
2022/11/04 11:33:34;;;;;;;0.00;0.00;;;;;;;14.94;53.19;97005.44;8413196;28;20237;-71
2022/11/04 11:37:39;;;;;;;0.00;0.00;;;;;;;14.94;54.28;96997.63;8413176;28;20394;-72
2022/11/04 11:41:51;;;;;;;0.10;0.10;;;;;;;14.89;53.54;96988.50;8412904;28;20247;-73
2022/11/04 11:45:56;;;;;;;0.00;0.00;;;;;;;15.09;53.34;96992.19;8411915;28;20337;-72
2022/11/04 11:50:15;;;;;;;0.00;0.00;;;;;;;15.14;53.26;96993.47;8412529;28;20518;-72
2022/11/04 11:54:23;;;;;;;0.10;0.10;;;;;;;15.25;53.39;96993.47;8413096;28;20303;-72
2022/11/04 11:58:29;;;;;;;0.00;0.00;;;;;;;15.29;53.86;96990.59;8412549;28;20546;-72
2022/11/04 12:02:56;;;;;;;0.10;0.10;;;;;;;15.00;53.69;96994.56;8411667;28;20254;-72
2022/11/04 12:07:07;;;;;;;0.00;0.00;;;;;;;15.32;52.97;97003.41;8411975;28;20254;-72
2022/11/04 12:11:37;;;;;;;0.00;0.00;;;;;;;15.43;52.85;96990.34;8412370;28;20238;-73
2022/11/04 12:15:55;;;;;;;0.00;0.00;;;;;;;15.43;52.43;96987.75;8412230;28;20511;-74
2022/11/04 12:20:06;;;;;;;0.10;0.10;;;;;;;15.42;51.80;96986.91;8411922;28;20322;-74
2022/11/04 12:24:28;;;;;;;0.00;0.00;;;;;;;15.50;52.58;96995.88;8412002;28;20238;-73
2022/11/04 12:28:39;;;;;;;0.00;0.00;;;;;;;15.54;51.61;97013.81;8412000;28;20253;-73
2022/11/04 12:32:50;;;;;;;0.00;0.00;;;;;;;15.41;51.90;97019.16;8411907;28;20231;-73
2022/11/04 12:37:01;;;;;;;0.00;0.00;;;;;;;15.38;52.29;97021.19;8411234;28;20246;-74
2022/11/04 12:41:12;;;;;;;0.00;0.00;;;;;;;15.50;52.65;97024.59;8412582;28;20280;-73
2022/11/04 12:45:46;;;;;;;0.00;0.00;;;;;;;15.47;52.43;97024.84;8412093;28;20240;-73
2022/11/04 12:50:06;;;;;;;0.00;0.00;;;;;;;15.44;52.10;97028.53;8412891;28;20526;-73
2022/11/04 12:54:26;;;;;;;0.00;0.00;;;;;;;15.35;52.20;97031.88;8412130;28;20238;-74
2022/11/04 12:58:39;;;;;;;0.00;0.00;;;;;;;15.13;52.92;97028.31;8412378;28;20250;-73
2022/11/04 13:02:45;;;;;;;0.00;0.00;;;;;;;15.17;52.88;97032.38;8414915;28;20253;-74
2022/11/04 13:06:52;;;;;;;0.00;0.00;;;;;;;15.16;53.44;97040.31;8418930;28;20234;-72
2022/11/04 13:11:00;;;;;;;0.00;0.00;;;;;;;15.14;54.13;97032.59;8417926;28;20235;-72
2022/11/04 13:15:12;;;;;;;0.00;0.00;;;;;;;15.21;53.01;97036.38;8418416;28;20238;-72
2022/11/04 13:19:23;;;;;;;0.00;0.00;;;;;;;15.11;52.56;97035.44;8418447;28;20234;-72
2022/11/04 13:23:30;;;;;;;0.00;0.00;;;;;;;15.12;53.22;97036.28;8417781;28;20247;-72
2022/11/04 13:27:36;;;;;;;0.00;0.00;;;;;;;15.05;53.60;97036.72;8417990;28;20227;-72
2022/11/04 13:31:46;;;;;;;0.00;0.00;;;;;;;15.02;54.02;97034.38;8418002;28;20237;-72
2022/11/04 13:35:55;;;;;;;0.00;0.00;;;;;;;15.15;53.60;97036.03;8417925;28;20255;-73
2022/11/04 13:40:00;;;;;;;0.00;0.00;;;;;;;15.14;53.24;97037.00;8417041;28;20231;-71
2022/11/04 13:44:06;;;;;;;0.00;0.00;;;;;;;15.15;53.66;97034.25;8417255;28;20239;-71
2022/11/04 13:48:11;;;;;;;0.00;0.00;;;;;;;15.21;54.00;97031.16;8417956;28;20234;-74
2022/11/04 13:52:14;;;;;;;0.00;0.00;;;;;;;15.13;53.82;97032.72;8419846;28;20285;-75
2022/11/04 13:56:28;;;;;;;0.00;0.00;;;;;;;15.14;53.47;97035.19;8417426;28;20291;-75
2022/11/04 14:00:36;;;;;;;0.00;0.00;;;;;;;14.98;53.73;97043.38;8417304;28;20231;-77
2022/11/04 14:04:40;;;;;;;0.10;0.10;;;;;;;15.07;53.20;97046.22;8417059;28;20521;-75
2022/11/04 14:09:23;;;;;;;0.10;0.10;;;;;;;14.97;53.25;97053.94;8416225;28;20241;-74
2022/11/04 14:14:01;;;;;;;0.10;0.10;;;;;;;14.94;53.11;97052.38;8415515;28;20455;-74
2022/11/04 14:18:05;;;;;;;0.10;0.10;;;;;;;14.91;53.97;97049.16;8416141;28;20235;-74
2022/11/04 14:22:17;;;;;;;0.03;0.03;;;;;;;14.93;53.83;97053.34;8416061;28;20227;-75
2022/11/04 14:26:21;;;;;;;0.00;0.00;;;;;;;14.89;53.81;97056.28;8415187;28;20231;-75
2022/11/04 14:30:51;;;;;;;0.00;0.00;;;;;;;14.85;54.35;97069.56;8416364;28;20227;-75
2022/11/04 14:34:58;;;;;;;0.07;0.07;;;;;;;14.88;53.84;97071.09;8380227;28;20238;-75
2022/11/04 14:39:05;;;;;;;0.10;0.10;;;;;;;14.83;54.28;97081.88;8415461;28;20231;-74
2022/11/04 14:43:19;;;;;;;0.00;0.00;;;;;;;14.84;53.97;97082.69;8415528;28;20249;-74
2022/11/04 14:47:24;;;;;;;0.00;0.00;;;;;;;14.82;54.07;97082.81;8415553;28;20511;-75
2022/11/04 14:51:29;;;;;;;0.10;0.10;;;;;;;14.82;54.67;97088.03;8415548;28;20238;-74
2022/11/04 14:55:34;;;;;;;0.10;0.10;;;;;;;14.86;53.98;97093.84;8415107;28;20246;-74
2022/11/04 14:59:36;;;;;;;0.00;0.00;;;;;;;14.84;53.96;97099.16;8415159;28;20234;-72
2022/11/04 15:03:40;;;;;;;0.00;0.00;;;;;;;14.79;54.41;97100.44;8415185;28;20235;-75
2022/11/04 15:08:18;;;;;;;0.00;0.00;;;;;;;14.74;54.31;97105.19;8414324;28;20548;-74
2022/11/04 15:16:45;;;;;;;0.10;0.10;;;;;;;14.70;54.73;97114.16;8414217;28;20231;-75
2022/11/04 15:20:51;;;;;;;0.00;0.00;;;;;;;14.68;55.19;97106.50;8414678;28;20307;-74
2022/11/04 15:24:55;;;;;;;0.00;0.00;;;;;;;14.61;56.16;97105.28;8413028;28;20238;-74
2022/11/04 15:29:01;;;;;;;0.00;0.00;;;;;;;14.55;56.25;97109.13;8413801;28;20227;-74
2022/11/04 15:33:04;;;;;;;0.00;0.00;;;;;;;14.52;56.36;97111.13;8414124;28;20525;-74
2022/11/04 15:37:08;;;;;;;0.10;0.10;;;;;;;14.42;56.77;97113.59;8413940;28;20234;-74
2022/11/04 15:45:40;;;;;;;0.00;0.00;;;;;;;14.40;56.34;97120.69;8413151;28;20238;-74
2022/11/04 15:49:43;;;;;;;0.10;0.10;;;;;;;14.38;56.60;97130.38;8413413;28;20231;-75
2022/11/04 15:53:49;;;;;;;0.00;0.00;;;;;;;14.33;56.82;97122.06;8413739;28;20565;-74
2022/11/04 15:57:53;;;;;;;0.00;0.00;;;;;;;14.24;57.17;97123.56;8412970;28;20238;-74
2022/11/04 16:01:57;;;;;;;0.00;0.00;;;;;;;14.24;57.08;97126.16;8413757;28;20231;-74
2022/11/04 16:06:02;;;;;;;0.10;0.10;;;;;;;14.23;57.25;97130.56;8413366;28;20234;-75
2022/11/04 16:10:24;;;;;;;0.10;0.10;;;;;;;14.23;56.69;97129.72;8413042;28;20436;-74
2022/11/04 16:14:30;;;;;;;0.00;0.00;;;;;;;14.20;57.53;97136.00;8413803;28;20238;-74
2022/11/04 16:18:36;;;;;;;0.00;0.00;;;;;;;14.12;57.51;97130.50;8413512;28;20537;-74
2022/11/04 16:22:39;;;;;;;0.00;0.00;;;;;;;14.10;57.93;97132.38;8413599;28;20456;-75
2022/11/04 16:26:44;;;;;;;0.00;0.00;;;;;;;14.08;58.71;97129.88;8412988;28;20545;-75
2022/11/04 16:30:55;;;;;;;0.10;0.10;;;;;;;14.08;58.42;97139.47;8412849;28;20427;-75
2022/11/04 16:35:01;;;;;;;0.00;0.00;;;;;;;14.03;59.01;97141.56;8412513;28;20283;-74
2022/11/04 16:39:07;;;;;;;0.00;0.00;;;;;;;14.06;59.32;97139.56;8417894;28;20550;-74
2022/11/04 16:43:10;;;;;;;0.10;0.10;;;;;;;14.09;58.50;97143.75;8419103;28;20302;-74
2022/11/04 16:47:14;;;;;;;0.10;0.10;;;;;;;14.07;58.82;97138.66;8418924;28;20238;-73
2022/11/04 16:51:19;;;;;;;0.10;0.10;;;;;;;14.01;58.90;97146.03;8419265;28;20403;-72
2022/11/04 16:55:23;;;;;;;0.00;0.00;;;;;;;13.91;59.06;97155.47;8418725;28;20226;-69
2022/11/04 16:59:26;;;;;;;0.00;0.00;;;;;;;13.87;59.15;97166.06;8418939;28;20234;-72
2022/11/04 17:03:28;;;;;;;0.10;0.10;;;;;;;13.91;59.15;97169.28;8418526;28;20237;-73
2022/11/04 17:07:32;;;;;;;0.00;0.00;;;;;;;13.86;59.62;97172.25;8419095;28;20445;-72
2022/11/04 17:11:55;;;;;;;0.03;0.03;;;;;;;13.86;59.64;97172.25;8417636;28;20237;-75
2022/11/04 17:15:58;;;;;;;0.10;0.10;;;;;;;13.95;58.86;97188.97;8418357;28;20277;-75
2022/11/04 17:20:00;;;;;;;0.10;0.10;;;;;;;13.94;58.81;97187.31;8418286;28;20226;-75
2022/11/04 17:24:05;;;;;;;0.10;0.10;;;;;;;13.81;59.57;97183.91;8418335;28;20230;-75
2022/11/04 17:28:08;;;;;;;0.10;0.10;;;;;;;13.86;59.67;97194.84;8418092;28;20318;-75
2022/11/04 17:32:11;;;;;;;0.00;0.00;;;;;;;13.81;60.06;97209.94;8417925;28;20525;-75
2022/11/04 17:36:17;;;;;;;0.00;0.00;;;;;;;13.83;59.66;97206.28;8418530;28;20242;-76
2022/11/04 17:40:23;;;;;;;0.10;0.10;;;;;;;13.77;59.39;97217.13;8418339;28;20222;-75
2022/11/04 17:44:24;;;;;;;0.10;0.10;;;;;;;13.81;59.68;97223.75;8417657;28;20239;-75
2022/11/04 17:48:27;;;;;;;0.00;0.00;;;;;;;13.71;59.67;97219.28;8416359;28;20525;-75
2022/11/04 17:52:30;;;;;;;0.10;0.10;;;;;;;13.65;59.51;97224.00;8417357;28;20243;-75
2022/11/04 17:56:35;;;;;;;0.07;0.07;;;;;;;13.64;59.76;97231.91;8417364;28;20726;-75
2022/11/04 18:00:38;;;;;;;0.00;0.00;;;;;;;13.74;59.72;97232.94;8417009;28;20231;-75
2022/11/04 18:04:40;;;;;;;0.10;0.10;;;;;;;13.65;59.57;97233.56;8416748;28;20238;-75
2022/11/04 18:08:43;;;;;;;0.10;0.10;;;;;;;13.66;59.84;97243.03;8417031;28;20257;-75
2022/11/04 18:12:47;;;;;;;0.10;0.10;;;;;;;13.67;60.17;97248.13;8416623;28;20243;-75
2022/11/04 18:16:50;;;;;;;0.10;0.10;;;;;;;13.66;60.49;97243.03;8416422;28;20234;-74
2022/11/04 18:21:02;;;;;;;0.00;0.00;;;;;;;13.66;60.30;97240.44;8416124;28;20226;-75
2022/11/04 18:25:05;;;;;;;0.10;0.10;;;;;;;13.61;60.43;97237.31;8415880;28;20245;-75
2022/11/04 18:29:09;;;;;;;0.10;0.10;;;;;;;13.67;59.85;97235.13;8415752;28;20317;-75
2022/11/04 18:33:12;;;;;;;0.10;0.10;;;;;;;13.63;60.20;97241.50;8416347;28;20235;-75
2022/11/04 18:37:15;;;;;;;0.10;0.10;;;;;;;13.57;60.23;97248.88;8416540;28;20234;-75
2022/11/04 18:41:18;;;;;;;0.10;0.10;;;;;;;13.51;60.21;97251.88;8415756;28;20234;-75
2022/11/04 18:45:22;;;;;;;0.10;0.10;;;;;;;13.51;60.10;97252.72;8415361;28;20226;-75
2022/11/04 18:49:25;;;;;;;0.10;0.10;;;;;;;13.50;60.88;97248.47;8415841;28;20237;-75
2022/11/04 18:53:28;;;;;;;0.10;0.10;;;;;;;13.51;60.55;97257.91;8415234;28;20231;-75
2022/11/04 18:57:31;;;;;;;0.10;0.10;;;;;;;13.51;60.95;97259.69;8415416;28;20289;-75
2022/11/04 19:01:35;;;;;;;0.10;0.10;;;;;;;13.46;60.68;97268.63;8414750;28;20239;-75
2022/11/04 19:05:40;;;;;;;0.10;0.10;;;;;;;13.47;60.55;97280.69;8414841;28;20272;-75
2022/11/04 19:09:42;;;;;;;0.10;0.10;;;;;;;13.47;60.50;97287.66;8415139;28;20243;-75
2022/11/04 19:13:51;;;;;;;0.07;0.07;;;;;;;13.45;60.77;97282.56;8415128;28;20557;-76
2022/11/04 19:17:55;;;;;;;0.10;0.10;;;;;;;13.43;61.15;97289.63;8413970;28;20445;-75
2022/11/04 19:21:58;;;;;;;0.10;0.10;;;;;;;13.47;60.54;97293.69;8414911;28;20234;-75
2022/11/04 19:26:05;;;;;;;0.10;0.10;;;;;;;13.57;60.52;97296.50;8415143;28;20238;-75
2022/11/04 19:30:08;;;;;;;0.00;0.00;;;;;;;13.53;60.72;97300.25;8414549;28;20235;-75
2022/11/04 19:34:13;;;;;;;0.10;0.10;;;;;;;13.49;61.08;97317.00;8414732;28;20234;-75
2022/11/04 19:38:16;;;;;;;0.00;0.00;;;;;;;13.44;61.40;97325.13;8414505;28;20235;-76
2022/11/04 19:46:39;;;;;;;0.07;0.07;;;;;;;13.42;61.15;97339.16;8414078;28;20561;-75
2022/11/04 19:50:45;;;;;;;0.00;0.00;;;;;;;13.36;60.79;97339.56;8413863;28;20250;-75
2022/11/04 19:54:48;;;;;;;0.10;0.10;;;;;;;13.25;61.28;97350.63;8413781;28;20241;-75
2022/11/04 19:58:51;;;;;;;0.00;0.00;;;;;;;13.29;61.04;97350.34;8413769;28;20257;-75
2022/11/04 20:02:54;;;;;;;0.00;0.00;;;;;;;13.27;61.34;97357.41;8413633;28;20223;-75
2022/11/04 20:06:58;;;;;;;0.10;0.10;;;;;;;13.35;61.67;97369.13;8413365;28;20498;-75